createdAt,value
2022-09-07T00:00:27.085Z,99470.75
2022-09-07T00:01:28.584Z,99479.22
2022-09-07T00:02:30.136Z,99473.56
2022-09-07T00:03:31.862Z,99474.25
2022-09-07T00:04:33.477Z,99480.03
2022-09-07T00:05:41.762Z,99479.38
2022-09-07T00:06:43.253Z,99482.88
2022-09-07T00:07:44.765Z,99474.56
2022-09-07T00:08:46.269Z,99472.91
2022-09-07T00:09:47.768Z,99465.09
2022-09-07T00:10:57.768Z,99470.59
2022-09-07T00:11:59.270Z,99463.44
2022-09-07T00:13:00.773Z,99471.09
2022-09-07T00:14:02.277Z,99468.44
2022-09-07T00:15:05.312Z,99461.13
2022-09-07T00:16:09.819Z,99464.44
2022-09-07T00:17:11.388Z,99466.44
2022-09-07T00:18:12.887Z,99472.09
2022-09-07T00:19:14.498Z,99465.78
2022-09-07T00:20:16.014Z,99467.59
2022-09-07T00:21:18.016Z,99471.56
2022-09-07T00:22:19.515Z,99464.75
2022-09-07T00:23:21.018Z,99464.28
2022-09-07T00:24:22.518Z,99465.28
2022-09-07T00:25:24.018Z,99459.13
2022-09-07T00:26:30.588Z,99467.94
2022-09-07T00:27:32.350Z,99462.09
2022-09-07T00:28:34.371Z,99460.97
2022-09-07T00:29:35.863Z,99466.78
2022-09-07T00:30:41.665Z,99466.63
2022-09-07T00:31:43.194Z,99459.31
2022-09-07T00:32:44.776Z,99461.31
2022-09-07T00:33:46.985Z,99452.16
2022-09-07T00:34:50.738Z,99457.81
2022-09-07T00:35:52.349Z,99466.09
2022-09-07T00:36:53.853Z,99457.81
2022-09-07T00:37:55.663Z,99456.66
2022-09-07T00:38:57.201Z,99462.28
2022-09-07T00:39:58.711Z,99450.84
2022-09-07T00:41:00.274Z,99456.63
2022-09-07T00:42:01.771Z,99461.44
2022-09-07T00:43:04.198Z,99457.97
2022-09-07T00:44:47.859Z,99455.50
2022-09-07T00:45:49.264Z,99445.88
2022-09-07T00:46:50.819Z,99448.53
2022-09-07T00:47:59.840Z,99447.53
2022-09-07T00:49:19.558Z,99441.22
2022-09-07T00:50:30.613Z,99447.69
2022-09-07T00:51:47.921Z,99443.03
2022-09-07T00:52:57.938Z,99443.38
2022-09-07T00:54:17.044Z,99447.50
2022-09-07T00:55:19.567Z,99446.53
2022-09-07T00:56:24.038Z,99455.81
2022-09-07T00:57:25.621Z,99453.31
2022-09-07T00:58:27.903Z,99445.19
2022-09-07T00:59:38.673Z,99444.84
2022-09-07T01:00:41.817Z,99455.97
2022-09-07T01:01:44.963Z,99453.97
2022-09-07T01:02:49.197Z,99451.31
2022-09-07T01:03:53.590Z,99454.47
2022-09-07T01:05:08.835Z,99452.16
2022-09-07T01:06:17.061Z,99456.59
2022-09-07T01:07:19.175Z,99449.66
2022-09-07T01:08:21.193Z,99451.97
2022-09-07T01:09:24.537Z,99456.75
2022-09-07T01:10:28.495Z,99452.78
2022-09-07T01:11:32.539Z,99452.44
2022-09-07T01:12:34.058Z,99454.47
2022-09-07T01:13:36.377Z,99456.91
2022-09-07T01:14:43.408Z,99459.75
2022-09-07T01:16:06.595Z,99455.38
2022-09-07T01:17:28.883Z,99449.41
2022-09-07T01:18:42.149Z,99456.50
2022-09-07T01:20:26.533Z,99452.19
2022-09-07T01:21:56.486Z,99455.81
2022-09-07T01:23:16.713Z,99452.97
2022-09-07T01:24:47.339Z,99451.84
2022-09-07T01:26:38.703Z,99452.50
2022-09-07T01:28:01.716Z,99444.72
2022-09-07T01:29:16.008Z,99452.50
2022-09-07T01:30:22.518Z,99446.19
2022-09-07T01:31:37.613Z,99435.91
2022-09-07T01:32:48.150Z,99435.06
2022-09-07T01:34:08.477Z,99439.22
2022-09-07T01:35:33.619Z,99440.03
2022-09-07T01:36:39.314Z,99437.56
2022-09-07T01:37:57.236Z,99440.22
2022-09-07T01:39:04.929Z,99439.09
2022-09-07T01:40:14.726Z,99440.78
2022-09-07T01:41:29.534Z,99438.34
2022-09-07T01:42:34.719Z,99441.13
2022-09-07T01:43:54.542Z,99432.03
2022-09-07T01:45:02.694Z,99433.84
2022-09-07T01:46:16.728Z,99430.72
2022-09-07T01:47:33.944Z,99431.22
2022-09-07T01:48:38.108Z,99433.72
2022-09-07T01:49:59.671Z,99425.19
2022-09-07T01:51:03.525Z,99420.38
2022-09-07T01:52:13.758Z,99429.00
2022-09-07T01:53:32.007Z,99415.53
2022-09-07T01:54:41.296Z,99419.69
2022-09-07T01:55:45.556Z,99426.13
2022-09-07T01:56:50.435Z,99415.66
2022-09-07T01:58:00.228Z,99416.31
2022-09-07T01:59:14.728Z,99417.31
2022-09-07T02:00:19.096Z,99422.28
2022-09-07T02:01:27.272Z,99416.50
2022-09-07T02:02:34.312Z,99419.81
2022-09-07T02:03:50.310Z,99416.53
2022-09-07T02:04:58.872Z,99412.03
2022-09-07T02:06:23.095Z,99415.66
2022-09-07T02:07:33.811Z,99410.53
2022-09-07T02:08:53.114Z,99407.72
2022-09-07T02:10:00.860Z,99409.53
2022-09-07T02:11:08.301Z,99410.34
2022-09-07T02:12:22.498Z,99414.53
2022-09-07T02:13:28.089Z,99410.72
2022-09-07T02:14:36.346Z,99414.69
2022-09-07T02:15:46.803Z,99414.56
2022-09-07T02:16:57.560Z,99415.53
2022-09-07T02:18:05.001Z,99421.38
2022-09-07T02:19:13.871Z,99414.56
2022-09-07T02:20:26.835Z,99405.75
2022-09-07T02:21:35.809Z,99410.56
2022-09-07T02:22:41.810Z,99415.88
2022-09-07T02:23:51.810Z,99412.91
2022-09-07T02:24:58.937Z,99413.91
2022-09-07T02:26:05.732Z,99413.06
2022-09-07T02:27:33.262Z,99421.72
2022-09-07T02:28:37.098Z,99425.53
2022-09-07T02:29:38.805Z,99422.72
2022-09-07T02:30:40.730Z,99427.53
2022-09-07T02:31:42.442Z,99427.25
2022-09-07T02:32:44.149Z,99429.72
2022-09-07T02:33:45.654Z,99428.72
2022-09-07T02:34:47.151Z,99429.06
2022-09-07T02:35:49.066Z,99422.94
2022-09-07T02:36:52.207Z,99425.25
2022-09-07T02:37:54.323Z,99423.25
2022-09-07T02:38:55.822Z,99420.13
2022-09-07T02:39:57.351Z,99413.81
2022-09-07T02:41:01.460Z,99426.41
2022-09-07T02:42:03.093Z,99420.44
2022-09-07T02:43:08.181Z,99419.44
2022-09-07T02:44:19.200Z,99420.75
2022-09-07T02:45:21.419Z,99426.06
2022-09-07T02:46:44.487Z,99406.69
2022-09-07T02:47:58.190Z,99420.44
2022-09-07T02:49:50.863Z,99410.47
2022-09-07T02:51:17.744Z,99418.06
2022-09-07T02:52:37.867Z,99416.94
2022-09-07T02:53:48.171Z,99421.09
2022-09-07T02:55:05.437Z,99419.88
2022-09-07T02:56:26.693Z,99417.41
2022-09-07T02:57:37.606Z,99422.53
2022-09-07T02:58:51.286Z,99424.06
2022-09-07T03:00:01.975Z,99422.09
2022-09-07T03:01:24.419Z,99415.28
2022-09-07T03:02:34.611Z,99416.06
2022-09-07T03:03:45.600Z,99413.03
2022-09-07T03:05:16.469Z,99417.03
2022-09-07T03:06:34.343Z,99414.19
2022-09-07T03:07:52.733Z,99413.88
2022-09-07T03:08:58.126Z,99415.88
2022-09-07T03:10:02.494Z,99420.84
2022-09-07T03:11:05.025Z,99420.56
2022-09-07T03:12:07.297Z,99427.84
2022-09-07T03:13:08.941Z,99419.88
2022-09-07T03:14:19.760Z,99410.66
2022-09-07T03:15:24.711Z,99414.47
2022-09-07T03:16:26.346Z,99410.41
2022-09-07T03:17:27.932Z,99409.22
2022-09-07T03:18:29.613Z,99403.34
2022-09-07T03:19:31.365Z,99405.78
2022-09-07T03:20:32.870Z,99404.28
2022-09-07T03:21:34.371Z,99404.97
2022-09-07T03:22:36.078Z,99408.28
2022-09-07T03:23:37.577Z,99408.78
2022-09-07T03:24:39.084Z,99418.03
2022-09-07T03:25:40.582Z,99423.03
2022-09-07T03:26:46.383Z,99416.41
2022-09-07T03:27:47.886Z,99418.41
2022-09-07T03:28:49.392Z,99415.28
2022-09-07T03:29:50.895Z,99413.16
2022-09-07T03:30:52.533Z,99417.97
2022-09-07T03:31:54.202Z,99409.88
2022-09-07T03:32:55.707Z,99407.88
2022-09-07T03:33:57.213Z,99417.00
2022-09-07T03:35:01.681Z,99422.94
2022-09-07T03:36:03.386Z,99422.47
2022-09-07T03:37:04.891Z,99420.34
2022-09-07T03:38:06.395Z,99419.69
2022-09-07T03:39:08.303Z,99425.78
2022-09-07T03:40:11.715Z,99429.81
2022-09-07T03:41:13.254Z,99424.16
2022-09-07T03:42:14.755Z,99422.19
2022-09-07T03:43:16.360Z,99424.84
2022-09-07T03:44:18.069Z,99429.31
2022-09-07T03:45:19.776Z,99430.94
2022-09-07T03:46:21.730Z,99425.97
2022-09-07T03:47:23.294Z,99423.31
2022-09-07T03:48:24.836Z,99418.00
2022-09-07T03:49:26.399Z,99414.53
2022-09-07T03:50:27.903Z,99415.84
2022-09-07T03:51:29.509Z,99417.84
2022-09-07T03:52:31.007Z,99416.34
2022-09-07T03:53:38.549Z,99416.50
2022-09-07T03:54:40.159Z,99415.50
2022-09-07T03:55:41.659Z,99411.22
2022-09-07T03:56:43.160Z,99419.00
2022-09-07T03:57:44.663Z,99418.13
2022-09-07T03:58:48.107Z,99415.44
2022-09-07T03:59:49.715Z,99417.94
2022-09-07T04:00:51.523Z,99416.47
2022-09-07T04:01:53.042Z,99418.94
2022-09-07T04:02:54.555Z,99416.13
2022-09-07T04:04:02.235Z,99414.81
2022-09-07T04:05:04.288Z,99407.66
2022-09-07T04:06:06.097Z,99406.34
2022-09-07T04:07:07.600Z,99414.56
2022-09-07T04:08:09.102Z,99410.94
2022-09-07T04:09:13.879Z,99412.44
2022-09-07T04:10:15.486Z,99414.91
2022-09-07T04:11:18.523Z,99410.28
2022-09-07T04:12:20.028Z,99403.16
2022-09-07T04:13:21.527Z,99413.25
2022-09-07T04:14:23.240Z,99413.09
2022-09-07T04:15:24.739Z,99418.22
2022-09-07T04:16:27.399Z,99414.75
2022-09-07T04:17:28.971Z,99416.91
2022-09-07T04:18:30.624Z,99418.72
2022-09-07T04:19:32.262Z,99416.41
2022-09-07T04:20:33.732Z,99409.97
2022-09-07T04:21:35.183Z,99412.16
2022-09-07T04:22:36.688Z,99402.50
2022-09-07T04:23:40.028Z,99404.47
2022-09-07T04:24:41.535Z,99405.63
2022-09-07T04:25:50.407Z,99398.34
2022-09-07T04:26:51.904Z,99407.59
2022-09-07T04:27:53.409Z,99402.94
2022-09-07T04:28:55.318Z,99399.41
2022-09-07T04:29:56.824Z,99402.22
2022-09-07T04:31:02.459Z,99396.91
2022-09-07T04:32:04.137Z,99402.97
2022-09-07T04:33:05.631Z,99399.81
2022-09-07T04:34:07.952Z,99397.97
2022-09-07T04:35:10.020Z,99387.38
2022-09-07T04:36:12.289Z,99388.03
2022-09-07T04:37:13.790Z,99382.19
2022-09-07T04:38:16.366Z,99381.88
2022-09-07T04:39:17.919Z,99379.44
2022-09-07T04:40:19.423Z,99373.47
2022-09-07T04:41:21.026Z,99372.81
2022-09-07T04:42:22.530Z,99372.69
2022-09-07T04:43:24.059Z,99378.13
2022-09-07T04:44:25.636Z,99377.84
2022-09-07T04:45:27.140Z,99381.69
2022-09-07T04:46:36.521Z,99386.69
2022-09-07T04:47:37.956Z,99386.88
2022-09-07T04:48:39.526Z,99388.75
2022-09-07T04:49:41.337Z,99385.91
2022-09-07T04:50:42.840Z,99388.09
2022-09-07T04:51:44.372Z,99385.63
2022-09-07T04:52:46.153Z,99384.31
2022-09-07T04:53:49.702Z,99388.81
2022-09-07T04:54:51.716Z,99376.56
2022-09-07T04:55:53.216Z,99384.84
2022-09-07T04:56:54.716Z,99389.00
2022-09-07T04:57:56.222Z,99384.06
2022-09-07T04:58:58.134Z,99389.06
2022-09-07T04:59:59.636Z,99384.94
2022-09-07T05:01:03.132Z,99384.31
2022-09-07T05:02:04.943Z,99391.50
2022-09-07T05:03:06.497Z,99395.97
2022-09-07T05:04:08.007Z,99393.03
2022-09-07T05:05:09.709Z,99392.25
2022-09-07T05:06:12.029Z,99391.75
2022-09-07T05:07:13.531Z,99395.38
2022-09-07T05:08:15.031Z,99396.09
2022-09-07T05:09:16.539Z,99402.06
2022-09-07T05:10:18.038Z,99398.72
2022-09-07T05:11:26.264Z,99406.50
2022-09-07T05:12:30.153Z,99412.50
2022-09-07T05:13:32.578Z,99412.50
2022-09-07T05:14:34.182Z,99412.19
2022-09-07T05:15:35.682Z,99410.31
2022-09-07T05:16:37.232Z,99409.16
2022-09-07T05:17:38.879Z,99404.38
2022-09-07T05:18:40.701Z,99407.50
2022-09-07T05:19:42.205Z,99406.69
2022-09-07T05:20:43.707Z,99399.72
2022-09-07T05:21:45.207Z,99396.91
2022-09-07T05:22:47.121Z,99394.06
2022-09-07T05:23:50.569Z,99397.41
2022-09-07T05:24:52.075Z,99406.19
2022-09-07T05:25:53.573Z,99405.69
2022-09-07T05:26:55.280Z,99408.69
2022-09-07T05:27:56.783Z,99406.03
2022-09-07T05:31:42.956Z,99405.22
2022-09-07T05:32:45.769Z,99405.84
2022-09-07T05:35:13.438Z,99415.25
2022-09-07T05:36:15.451Z,99414.88
2022-09-07T05:37:16.958Z,99413.88
2022-09-07T05:38:18.456Z,99420.38
2022-09-07T05:39:19.959Z,99418.44
2022-09-07T05:40:21.464Z,99420.28
2022-09-07T05:41:25.014Z,99428.91
2022-09-07T05:42:26.515Z,99434.56
2022-09-07T05:43:28.001Z,99425.28
2022-09-07T05:44:45.355Z,99425.94
2022-09-07T05:45:47.645Z,99418.47
2022-09-07T05:46:49.206Z,99417.47
2022-09-07T05:47:50.707Z,99411.19
2022-09-07T05:48:52.315Z,99416.47
2022-09-07T05:49:56.538Z,99411.97
2022-09-07T05:50:58.903Z,99405.13
2022-09-07T05:52:00.404Z,99402.88
2022-09-07T05:53:02.725Z,99398.78
2022-09-07T05:54:04.435Z,99401.03
2022-09-07T05:55:19.655Z,99397.91
2022-09-07T05:56:27.597Z,99391.88
2022-09-07T05:57:29.100Z,99392.03
2022-09-07T05:58:31.715Z,99385.81
2022-09-07T05:59:33.742Z,99387.56
2022-09-07T06:00:35.292Z,99388.59
2022-09-07T06:01:36.849Z,99386.91
2022-09-07T06:02:39.869Z,99390.34
2022-09-07T06:03:43.129Z,99390.66
2022-09-07T06:04:44.631Z,99395.44
2022-09-07T06:05:46.135Z,99400.44
2022-09-07T06:07:17.790Z,99398.16
2022-09-07T06:08:09.195Z,99400.44
2022-09-07T06:09:10.803Z,99398.28
2022-09-07T06:11:33.701Z,99393.16
2022-09-07T06:12:35.468Z,99398.19
2022-09-07T06:13:36.970Z,99400.88
2022-09-07T06:14:38.475Z,99404.00
2022-09-07T06:15:39.976Z,99400.88
2022-09-07T06:16:41.631Z,99399.47
2022-09-07T06:17:43.186Z,99394.31
2022-09-07T06:18:46.327Z,99402.00
2022-09-07T06:19:47.927Z,99402.88
2022-09-07T06:20:49.433Z,99398.75
2022-09-07T06:21:50.935Z,99395.56
2022-09-07T06:22:52.438Z,99398.88
2022-09-07T06:23:54.554Z,99398.94
2022-09-07T06:24:56.027Z,99398.94
2022-09-07T06:25:57.562Z,99398.22
2022-09-07T06:26:59.160Z,99402.44
2022-09-07T06:28:00.667Z,99397.78
2022-09-07T06:29:02.271Z,99388.09
2022-09-07T06:30:05.513Z,99387.44
2022-09-07T06:31:11.490Z,99393.34
2022-09-07T06:33:35.808Z,99393.91
2022-09-07T06:34:37.313Z,99388.44
2022-09-07T06:35:38.815Z,99386.66
2022-09-07T06:36:40.317Z,99382.78
2022-09-07T06:37:41.923Z,99381.94
2022-09-07T06:38:44.042Z,99378.38
2022-09-07T06:39:45.574Z,99373.56
2022-09-07T06:40:47.110Z,99380.09
2022-09-07T06:42:03.876Z,99381.56
2022-09-07T06:43:06.221Z,99388.97
2022-09-07T06:44:07.822Z,99385.97
2022-09-07T06:45:09.599Z,99390.97
2022-09-07T06:47:33.513Z,99393.78
2022-09-07T06:48:35.116Z,99389.97
2022-09-07T06:49:36.621Z,99394.59
2022-09-07T06:50:38.214Z,99395.19
2022-09-07T06:51:39.728Z,99403.19
2022-09-07T06:55:24.350Z,99396.88
2022-09-07T06:56:25.854Z,99391.13
2022-09-07T06:57:27.361Z,99397.97
2022-09-07T06:58:28.864Z,99396.56
2022-09-07T06:59:30.361Z,99400.03
2022-09-07T07:00:31.862Z,99395.50
2022-09-07T07:01:33.571Z,99399.72
2022-09-07T07:02:35.072Z,99404.09
2022-09-07T07:03:37.342Z,99405.06
2022-09-07T07:04:41.114Z,99395.84
2022-09-07T07:05:56.464Z,99400.09
2022-09-07T07:06:57.964Z,99396.03
2022-09-07T07:07:59.468Z,99399.53
2022-09-07T07:09:01.173Z,99399.72
2022-09-07T07:10:02.679Z,99399.81
2022-09-07T07:11:07.149Z,99399.44
2022-09-07T07:12:09.605Z,99395.50
2022-09-07T07:13:11.178Z,99395.84
2022-09-07T07:14:16.265Z,99404.66
2022-09-07T07:15:17.765Z,99402.97
2022-09-07T07:16:19.302Z,99399.66
2022-09-07T07:17:20.868Z,99398.81
2022-09-07T07:18:22.375Z,99386.59
2022-09-07T07:19:23.877Z,99393.50
2022-09-07T07:20:25.415Z,99393.00
2022-09-07T07:21:28.972Z,99387.66
2022-09-07T07:22:46.550Z,99384.03
2022-09-07T07:23:53.015Z,99387.41
2022-09-07T07:24:54.506Z,99382.13
2022-09-07T07:25:56.326Z,99385.19
2022-09-07T07:26:57.826Z,99389.47
2022-09-07T07:29:22.859Z,99383.34
2022-09-07T07:30:25.567Z,99388.53
2022-09-07T07:31:27.191Z,99382.19
2022-09-07T07:32:28.674Z,99389.19
2022-09-07T07:33:35.397Z,99381.06
2022-09-07T07:34:36.955Z,99383.34
2022-09-07T07:35:38.502Z,99391.47
2022-09-07T07:36:40.516Z,99387.44
2022-09-07T07:37:42.019Z,99390.56
2022-09-07T07:39:02.042Z,99389.53
2022-09-07T07:42:38.478Z,99387.97
2022-09-07T07:43:40.389Z,99385.47
2022-09-07T07:44:41.866Z,99388.13
2022-09-07T07:46:04.059Z,99395.69
2022-09-07T07:47:07.615Z,99385.97
2022-09-07T07:48:11.879Z,99389.56
2022-09-07T07:49:13.385Z,99384.84
2022-09-07T07:50:30.953Z,99386.72
2022-09-07T07:52:49.931Z,99394.31
2022-09-07T07:54:16.293Z,99386.50
2022-09-07T07:56:39.153Z,99396.97
2022-09-07T07:57:40.650Z,99387.13
2022-09-07T07:58:46.351Z,99393.38
2022-09-07T07:59:47.749Z,99392.56
2022-09-07T08:00:56.980Z,99394.25
2022-09-07T08:01:58.745Z,99396.06
2022-09-07T08:03:01.469Z,99392.63
2022-09-07T08:04:03.308Z,99397.16
2022-09-07T08:05:05.187Z,99393.84
2022-09-07T08:06:12.113Z,99393.03
2022-09-07T08:07:14.127Z,99396.28
2022-09-07T08:08:15.544Z,99395.66
2022-09-07T08:09:17.136Z,99393.59
2022-09-07T08:10:18.537Z,99395.50
2022-09-07T08:11:20.532Z,99400.25
2022-09-07T08:12:23.223Z,99394.06
2022-09-07T08:13:30.211Z,99391.59
2022-09-07T08:14:31.708Z,99389.13
2022-09-07T08:15:38.432Z,99386.06
2022-09-07T08:16:42.941Z,99389.75
2022-09-07T08:17:47.363Z,99388.09
2022-09-07T08:18:48.772Z,99379.88
2022-09-07T08:19:50.272Z,99381.72
2022-09-07T08:20:51.776Z,99384.59
2022-09-07T08:21:53.249Z,99381.69
2022-09-07T08:22:54.679Z,99377.13
2022-09-07T08:23:56.174Z,99375.25
2022-09-07T08:24:57.579Z,99374.81
2022-09-07T08:25:59.701Z,99375.22
2022-09-07T08:27:01.403Z,99384.09
2022-09-07T08:28:03.518Z,99379.31
2022-09-07T08:29:04.938Z,99380.16
2022-09-07T08:30:07.138Z,99384.53
2022-09-07T08:31:11.752Z,99378.53
2022-09-07T08:32:13.320Z,99384.09
2022-09-07T08:33:14.825Z,99384.72
2022-09-07T08:34:16.627Z,99378.13
2022-09-07T08:35:18.135Z,99383.75
2022-09-07T08:36:20.969Z,99380.63
2022-09-07T08:37:22.364Z,99377.50
2022-09-07T08:38:23.866Z,99379.28
2022-09-07T08:39:25.267Z,99379.88
2022-09-07T08:40:26.771Z,99377.97
2022-09-07T08:41:55.802Z,99378.22
2022-09-07T08:43:17.364Z,99373.50
2022-09-07T08:44:18.763Z,99380.06
2022-09-07T08:45:34.797Z,99377.94
2022-09-07T08:46:42.357Z,99379.16
2022-09-07T08:47:51.920Z,99373.31
2022-09-07T08:48:54.960Z,99369.31
2022-09-07T08:50:21.633Z,99373.13
2022-09-07T08:51:34.502Z,99377.63
2022-09-07T08:52:42.773Z,99375.63
2022-09-07T08:53:46.919Z,99378.69
2022-09-07T08:54:58.554Z,99373.13
2022-09-07T08:56:05.066Z,99367.53
2022-09-07T08:57:23.978Z,99368.63
2022-09-07T08:58:52.250Z,99370.59
2022-09-07T08:59:59.716Z,99370.28
2022-09-07T09:02:30.109Z,99362.97
2022-09-07T09:03:33.447Z,99356.19
2022-09-07T09:05:16.286Z,99360.53
2022-09-07T09:06:23.988Z,99354.69
2022-09-07T09:07:40.320Z,99358.91
2022-09-07T09:09:01.169Z,99350.47
2022-09-07T09:10:36.562Z,99355.16
2022-09-07T09:12:09.766Z,99356.06
2022-09-07T09:13:42.280Z,99359.53
2022-09-07T09:14:46.747Z,99355.34
2022-09-07T09:16:03.537Z,99360.50
2022-09-07T09:17:14.825Z,99351.28
2022-09-07T09:18:34.748Z,99359.69
2022-09-07T09:19:42.326Z,99357.72
2022-09-07T09:20:50.545Z,99354.66
2022-09-07T09:22:08.523Z,99350.19
2022-09-07T09:23:15.547Z,99344.66
2022-09-07T09:24:20.029Z,99349.59
2022-09-07T09:25:33.347Z,99350.97
2022-09-07T09:26:35.892Z,99344.38
2022-09-07T09:27:37.522Z,99346.91
2022-09-07T09:28:39.760Z,99345.59
2022-09-07T09:29:41.657Z,99341.97
2022-09-07T09:30:43.260Z,99340.19
2022-09-07T09:31:44.781Z,99331.22
2022-09-07T09:32:49.131Z,99342.25
2022-09-07T09:34:05.518Z,99337.44
2022-09-07T09:35:42.483Z,99334.75
2022-09-07T09:36:52.151Z,99332.97
2022-09-07T09:37:53.572Z,99330.28
2022-09-07T09:38:55.078Z,99330.44
2022-09-07T09:40:02.118Z,99331.25
2022-09-07T09:41:04.683Z,99332.09
2022-09-07T09:42:11.968Z,99329.72
2022-09-07T09:43:21.958Z,99337.13
2022-09-07T09:44:25.409Z,99328.97
2022-09-07T09:45:30.585Z,99334.56
2022-09-07T09:46:37.547Z,99327.66
2022-09-07T09:47:39.413Z,99337.06
2022-09-07T09:48:40.936Z,99329.25
2022-09-07T09:49:45.050Z,99334.38
2022-09-07T09:52:31.085Z,99329.91
2022-09-07T09:53:39.546Z,99324.44
2022-09-07T09:54:43.382Z,99329.22
2022-09-07T09:55:52.273Z,99326.75
2022-09-07T09:56:53.879Z,99326.81
2022-09-07T10:01:22.909Z,99328.00
2022-09-07T10:03:59.142Z,99329.44
2022-09-07T10:05:20.940Z,99321.78
2022-09-07T10:06:22.547Z,99330.66
2022-09-07T10:07:28.346Z,99320.41
2022-09-07T10:08:32.170Z,99317.34
2022-09-07T10:09:42.304Z,99322.53
2022-09-07T10:11:10.410Z,99321.16
2022-09-07T10:12:41.794Z,99323.38
2022-09-07T10:13:53.019Z,99321.41
2022-09-07T10:14:54.635Z,99316.81
2022-09-07T10:15:57.761Z,99322.22
2022-09-07T10:17:02.113Z,99321.41
2022-09-07T10:18:06.908Z,99326.00
2022-09-07T10:19:23.044Z,99323.81
2022-09-07T10:20:36.928Z,99322.00
2022-09-07T10:21:38.433Z,99325.16
2022-09-07T10:22:59.379Z,99324.56
2022-09-07T10:24:15.713Z,99324.94
2022-09-07T10:25:35.335Z,99317.00
2022-09-07T10:26:39.498Z,99318.53
2022-09-07T10:27:41.003Z,99313.38
2022-09-07T10:30:20.214Z,99307.03
2022-09-07T10:31:31.642Z,99311.47
2022-09-07T10:33:04.678Z,99305.97
2022-09-07T10:34:29.215Z,99296.00
2022-09-07T10:35:36.746Z,99298.25
2022-09-07T10:37:01.582Z,99293.53
2022-09-07T10:38:15.295Z,99302.81
2022-09-07T10:39:22.801Z,99290.63
2022-09-07T10:40:29.831Z,99297.03
2022-09-07T10:41:48.528Z,99296.56
2022-09-07T10:43:21.798Z,99292.72
2022-09-07T10:44:41.451Z,99285.69
2022-09-07T10:47:56.108Z,99295.41
2022-09-07T10:49:38.958Z,99295.75
2022-09-07T10:51:12.505Z,99295.38
2022-09-07T10:52:28.806Z,99301.25
2022-09-07T10:53:41.283Z,99294.34
2022-09-07T10:55:05.194Z,99286.13
2022-09-07T10:56:23.906Z,99291.03
2022-09-07T10:58:02.637Z,99291.03
2022-09-07T10:59:23.072Z,99289.28
2022-09-07T11:00:26.021Z,99284.72
2022-09-07T11:01:43.106Z,99285.69
2022-09-07T11:03:30.864Z,99282.63
2022-09-07T11:04:51.157Z,99288.25
2022-09-07T11:06:17.824Z,99290.59
2022-09-07T11:07:49.113Z,99288.25
2022-09-07T11:09:27.870Z,99289.22
2022-09-07T11:10:57.206Z,99288.16
2022-09-07T11:12:16.923Z,99288.72
2022-09-07T11:13:22.906Z,99276.53
2022-09-07T11:14:26.886Z,99278.41
2022-09-07T11:15:35.309Z,99287.56
2022-09-07T11:16:56.701Z,99281.94
2022-09-07T11:18:07.363Z,99275.97
2022-09-07T11:19:38.910Z,99280.16
2022-09-07T11:20:46.334Z,99279.81
2022-09-07T11:22:06.072Z,99277.81
2022-09-07T11:23:32.543Z,99273.13
2022-09-07T11:24:41.399Z,99285.69
2022-09-07T11:26:00.209Z,99279.25
2022-09-07T11:27:08.859Z,99281.84
2022-09-07T11:28:32.980Z,99280.16
2022-09-07T11:29:49.540Z,99279.50
2022-09-07T11:31:00.048Z,99281.81
2022-09-07T11:32:08.663Z,99278.06
2022-09-07T11:33:24.120Z,99269.25
2022-09-07T11:34:45.210Z,99281.34
2022-09-07T11:35:53.062Z,99272.75
2022-09-07T11:37:02.711Z,99273.53
2022-09-07T11:38:13.417Z,99272.00
2022-09-07T11:39:23.186Z,99273.22
2022-09-07T11:40:33.307Z,99261.94
2022-09-07T11:41:42.955Z,99269.91
2022-09-07T11:42:51.450Z,99258.66
2022-09-07T11:44:00.688Z,99259.31
2022-09-07T11:45:16.157Z,99257.78
2022-09-07T11:46:29.537Z,99253.59
2022-09-07T11:47:47.714Z,99256.38
2022-09-07T11:48:54.770Z,99258.00
2022-09-07T11:49:59.412Z,99256.72
2022-09-07T11:51:07.261Z,99254.59
2022-09-07T11:52:24.356Z,99249.03
2022-09-07T11:53:33.700Z,99245.22
2022-09-07T11:54:55.059Z,99254.38
2022-09-07T11:56:02.970Z,99246.72
2022-09-07T11:57:39.612Z,99244.03
2022-09-07T11:58:55.989Z,99254.28
2022-09-07T12:00:07.795Z,99243.84
2022-09-07T12:01:36.922Z,99238.09
2022-09-07T12:02:59.912Z,99236.66
2022-09-07T12:05:00.677Z,99243.25
2022-09-07T12:06:07.743Z,99242.78
2022-09-07T12:07:44.663Z,99242.75
2022-09-07T12:09:04.632Z,99241.25
2022-09-07T12:10:15.845Z,99242.88
2022-09-07T12:11:30.458Z,99241.81
2022-09-07T12:13:04.919Z,99243.81
2022-09-07T12:14:38.548Z,99240.41
2022-09-07T12:15:57.722Z,99240.88
2022-09-07T12:17:27.371Z,99244.25
2022-09-07T12:18:50.904Z,99236.84
2022-09-07T12:20:11.848Z,99243.19
2022-09-07T12:21:31.772Z,99235.28
2022-09-07T12:22:34.299Z,99230.00
2022-09-07T12:23:35.792Z,99230.84
2022-09-07T12:24:39.047Z,99231.75
2022-09-07T12:25:40.953Z,99227.75
2022-09-07T12:26:42.351Z,99230.28
2022-09-07T12:27:43.856Z,99228.84
2022-09-07T12:28:45.246Z,99229.41
2022-09-07T12:29:47.781Z,99231.84
2022-09-07T12:30:56.831Z,99231.84
2022-09-07T12:32:52.711Z,99227.59
2022-09-07T12:33:28.144Z,99230.91
2022-09-07T12:34:29.507Z,99221.66
2022-09-07T12:35:33.507Z,99226.50
2022-09-07T12:36:34.931Z,99233.84
2022-09-07T12:37:39.342Z,99222.09
2022-09-07T12:39:05.572Z,99222.31
2022-09-07T12:40:28.732Z,99221.28
2022-09-07T12:41:47.334Z,99216.47
2022-09-07T12:42:48.994Z,99213.63
2022-09-07T12:43:50.398Z,99218.19
2022-09-07T12:45:30.377Z,99212.75
2022-09-07T12:46:34.364Z,99216.72
2022-09-07T12:47:36.145Z,99212.28
2022-09-07T12:49:05.585Z,99215.94
2022-09-07T12:50:21.504Z,99214.06
2022-09-07T12:53:37.276Z,99209.25
2022-09-07T12:54:52.755Z,99209.09
2022-09-07T12:56:24.926Z,99216.41
2022-09-07T12:57:38.118Z,99209.69
2022-09-07T12:59:19.803Z,99209.25
2022-09-07T13:00:23.651Z,99208.88
2022-09-07T13:01:50.132Z,99208.19
2022-09-07T13:05:03.940Z,99205.50
2022-09-07T13:08:08.986Z,99195.69
2022-09-07T13:09:31.646Z,99194.69
2022-09-07T13:10:39.557Z,99188.47
2022-09-07T13:11:41.605Z,99187.16
2022-09-07T13:12:57.227Z,99187.50
2022-09-07T13:14:14.656Z,99183.09
2022-09-07T13:15:41.380Z,99184.09
2022-09-07T13:18:11.295Z,99189.28
2022-09-07T13:19:34.184Z,99176.94
2022-09-07T13:20:39.882Z,99181.38
2022-09-07T13:21:44.967Z,99183.25
2022-09-07T13:22:46.321Z,99179.91
2022-09-07T13:25:37.267Z,99189.34
2022-09-07T13:27:06.193Z,99184.53
2022-09-07T13:29:06.124Z,99187.47
2022-09-07T13:30:16.785Z,99183.69
2022-09-07T13:31:43.803Z,99186.16
2022-09-07T13:34:29.909Z,99181.00
2022-09-07T13:35:31.411Z,99173.16
2022-09-07T13:36:47.653Z,99175.59
2022-09-07T13:37:56.320Z,99171.03
2022-09-07T13:38:58.537Z,99174.03
2022-09-07T13:40:02.555Z,99168.72
2022-09-07T13:41:07.375Z,99165.88
2022-09-07T13:42:24.844Z,99166.44
2022-09-07T13:43:26.520Z,99173.38
2022-09-07T13:44:32.350Z,99164.28
2022-09-07T13:45:36.610Z,99169.69
2022-09-07T13:46:56.430Z,99168.53
2022-09-07T13:48:12.928Z,99160.09
2022-09-07T13:49:40.109Z,99156.06
2022-09-07T13:51:16.772Z,99158.97
2022-09-07T13:52:52.149Z,99150.78
2022-09-07T13:53:56.410Z,99147.31
2022-09-07T13:55:26.762Z,99145.28
2022-09-07T13:56:34.171Z,99141.94
2022-09-07T13:58:04.369Z,99140.63
2022-09-07T13:59:25.801Z,99139.78
2022-09-07T14:00:27.363Z,99140.34
2022-09-07T14:01:29.079Z,99139.28